createdAt,value
2019-04-20T00:02:44.036Z,20.90
2019-04-20T00:08:46.230Z,20.90
2019-04-20T00:14:50.241Z,20.80
2019-04-20T00:21:00.335Z,20.80
2019-04-20T00:27:15.769Z,20.70
2019-04-20T00:33:14.752Z,20.70
2019-04-20T00:39:10.858Z,20.60
2019-04-20T00:45:21.355Z,20.60
2019-04-20T00:51:30.889Z,20.50
2019-04-20T00:57:33.980Z,20.50
2019-04-20T01:03:39.201Z,20.40
2019-04-20T01:09:30.870Z,20.40
2019-04-20T01:15:44.437Z,20.30
2019-04-20T01:21:38.402Z,20.20
2019-04-20T01:28:03.276Z,20.20
2019-04-20T01:33:55.094Z,20.10
2019-04-20T01:39:55.005Z,20.10
2019-04-20T01:46:01.420Z,20.00
2019-04-20T01:52:07.363Z,20.00
2019-04-20T01:58:25.474Z,19.90
2019-04-20T02:04:15.750Z,19.90
2019-04-20T02:10:15.685Z,19.80
2019-04-20T02:16:26.388Z,19.80
2019-04-20T02:22:43.282Z,19.80
2019-04-20T02:28:55.414Z,19.70
2019-04-20T02:34:59.716Z,19.60
2019-04-20T02:41:11.598Z,19.60
2019-04-20T02:47:19.466Z,19.60
2019-04-20T02:53:23.553Z,19.50
2019-04-20T02:59:47.397Z,19.50
2019-04-20T03:05:08.115Z,19.40
2019-04-20T03:11:21.220Z,19.30
2019-04-20T03:17:29.783Z,19.30
2019-04-20T03:23:35.617Z,19.30
2019-04-20T03:29:37.081Z,19.20
2019-04-20T03:35:43.564Z,19.20
2019-04-20T03:41:30.463Z,19.10
2019-04-20T03:47:37.048Z,19.10
2019-04-20T03:53:50.213Z,19.00
2019-04-20T03:59:55.018Z,19.00
2019-04-20T04:05:50.932Z,18.90
2019-04-20T04:11:58.516Z,18.80
2019-04-20T04:17:50.373Z,18.80
2019-04-20T04:24:07.258Z,18.80
2019-04-20T04:30:16.963Z,18.70
2019-04-20T04:36:17.704Z,18.70
2019-04-20T04:42:31.365Z,18.60
2019-04-20T04:48:16.763Z,18.60
2019-04-20T04:54:28.937Z,18.50
2019-04-20T05:00:25.816Z,18.50
2019-04-20T05:06:37.794Z,18.50
2019-04-20T05:12:33.406Z,18.50
2019-04-20T05:18:59.282Z,18.50
2019-04-20T05:25:03.409Z,18.40
2019-04-20T05:30:48.604Z,18.50
2019-04-20T05:37:17.708Z,18.40
2019-04-20T05:43:10.655Z,18.50
2019-04-20T05:49:21.985Z,18.50
2019-04-20T05:55:23.791Z,18.50
2019-04-20T06:01:25.967Z,18.50
2019-04-20T06:07:34.755Z,18.50
2019-04-20T06:13:27.847Z,18.60
2019-04-20T06:19:45.433Z,18.50
2019-04-20T06:25:53.105Z,18.60
2019-04-20T06:31:45.934Z,18.60
2019-04-20T06:38:03.201Z,18.60
2019-04-20T06:44:02.492Z,18.60
2019-04-20T06:50:03.474Z,18.60
2019-04-20T06:56:09.935Z,18.60
2019-04-20T07:02:25.891Z,18.70
2019-04-20T07:08:37.358Z,18.70
2019-04-20T07:14:06.668Z,18.70
2019-04-20T07:20:35.116Z,18.70
2019-04-20T07:26:37.342Z,18.80
2019-04-20T07:32:42.676Z,18.80
2019-04-20T07:38:46.441Z,18.80
2019-04-20T07:44:48.834Z,18.90
2019-04-20T07:50:40.801Z,18.90
2019-04-20T07:56:53.931Z,19.00
2019-04-20T08:03:03.565Z,19.00
2019-04-20T08:08:58.655Z,19.10
2019-04-20T08:15:13.380Z,19.20
2019-04-20T08:21:17.907Z,19.20
2019-04-20T08:27:02.312Z,19.20
2019-04-20T08:33:19.880Z,19.30
2019-04-20T08:39:38.053Z,19.30
2019-04-20T08:45:36.134Z,19.40
2019-04-20T08:51:44.660Z,19.50
2019-04-20T08:57:20.515Z,19.50
2019-04-20T09:03:30.218Z,19.50
2019-04-20T09:09:54.396Z,19.60
2019-04-20T09:15:32.243Z,19.70
2019-04-20T09:21:46.241Z,19.70
2019-04-20T09:27:47.640Z,19.80
2019-04-20T09:34:01.495Z,19.80
2019-04-20T09:40:07.927Z,19.90
2019-04-20T09:45:58.566Z,19.90
2019-04-20T09:52:13.400Z,20.00
2019-04-20T09:58:15.402Z,20.00
2019-04-20T10:04:07.622Z,20.10
2019-04-20T10:10:22.656Z,20.10
2019-04-20T10:16:15.725Z,20.20
2019-04-20T10:22:18.919Z,20.20
2019-04-20T10:28:21.669Z,20.20
2019-04-20T10:34:24.473Z,20.30
2019-04-20T10:40:37.863Z,20.40
2019-04-20T10:46:31.662Z,20.40
2019-04-20T10:52:36.087Z,20.40
2019-04-20T10:58:40.065Z,20.50
2019-04-20T11:04:44.277Z,20.60
2019-04-20T11:10:57.845Z,20.60
2019-04-20T11:16:51.583Z,20.70
2019-04-20T11:22:55.932Z,20.70
2019-04-20T11:28:59.951Z,20.80
2019-04-20T11:35:09.039Z,20.80
2019-04-20T11:41:17.720Z,20.90
2019-04-20T11:47:12.766Z,20.90
2019-04-20T11:53:15.490Z,21.00
2019-04-20T11:59:18.953Z,21.10
2019-04-20T12:05:32.393Z,21.10
2019-04-20T12:11:34.845Z,21.10
2019-04-20T12:17:31.437Z,21.20
2019-04-20T12:23:34.342Z,21.30
2019-04-20T12:29:38.390Z,21.30
2019-04-20T12:35:42.537Z,21.40
2019-04-20T12:41:52.948Z,21.40
2019-04-20T12:47:51.477Z,21.50
2019-04-20T12:53:54.404Z,21.50
2019-04-20T12:59:57.309Z,21.60
2019-04-20T13:06:01.705Z,21.70
2019-04-20T13:12:08.400Z,21.70
2019-04-20T13:18:09.496Z,21.80
2019-04-20T13:24:13.548Z,21.80
2019-04-20T13:30:16.597Z,21.90
2019-04-20T13:36:19.905Z,21.90
2019-04-20T13:42:26.413Z,22.00
2019-04-20T13:48:28.770Z,22.10
2019-04-20T13:54:31.792Z,22.10
2019-04-20T14:00:39.640Z,22.10
2019-04-20T14:06:43.642Z,22.20
2019-04-20T14:12:58.707Z,22.30
2019-04-20T14:18:51.131Z,22.30
2019-04-20T14:24:55.169Z,22.30
2019-04-20T14:30:58.324Z,22.40
2019-04-20T14:37:01.056Z,22.50
2019-04-20T14:43:04.055Z,22.50
2019-04-20T14:49:06.959Z,22.60
2019-04-20T14:55:12.506Z,22.60
2019-04-20T15:01:14.411Z,22.70
2019-04-20T15:07:18.401Z,22.70
2019-04-20T15:13:22.321Z,22.80
2019-04-20T15:19:25.652Z,22.80
2019-04-20T15:25:29.597Z,22.90
2019-04-20T15:31:32.496Z,22.90
2019-04-20T15:37:35.223Z,23.00
2019-04-20T15:43:39.155Z,23.00
2019-04-20T15:49:42.200Z,23.00
2019-04-20T15:55:46.697Z,23.10
2019-04-20T16:01:49.392Z,23.10
2019-04-20T16:07:56.548Z,23.20
2019-04-20T16:13:58.158Z,23.20
2019-04-20T16:20:07.916Z,23.20
2019-04-20T16:26:05.927Z,23.30
2019-04-20T16:32:09.097Z,23.30
2019-04-20T16:38:11.832Z,23.30
2019-04-20T16:44:15.659Z,23.40
2019-04-20T16:50:19.319Z,23.40
2019-04-20T16:56:22.443Z,23.50
2019-04-20T17:02:26.465Z,23.50
2019-04-20T17:08:29.293Z,23.50
2019-04-20T17:14:32.088Z,23.50
2019-04-20T17:20:34.821Z,23.50
2019-04-20T17:26:38.908Z,23.60
2019-04-20T17:32:43.357Z,23.60
2019-04-20T17:38:52.554Z,23.70
2019-04-20T17:45:00.784Z,23.70
2019-04-20T17:51:16.905Z,23.70
2019-04-20T17:57:00.328Z,23.70
2019-04-20T18:03:19.675Z,23.70
2019-04-20T18:09:34.425Z,23.70
2019-04-20T18:15:34.508Z,23.80
2019-04-20T18:21:17.256Z,23.80
2019-04-20T18:27:38.957Z,23.80
2019-04-20T18:33:28.818Z,23.80
2019-04-20T18:39:37.444Z,23.80
2019-04-20T18:45:52.853Z,23.80
2019-04-20T18:51:39.721Z,23.80
2019-04-20T18:57:44.453Z,23.80
2019-04-20T19:03:49.009Z,23.80
2019-04-20T19:09:53.248Z,23.80
2019-04-20T19:16:11.670Z,23.70
2019-04-20T19:22:01.752Z,23.80
2019-04-20T19:28:05.565Z,23.70
2019-04-20T19:34:26.580Z,23.70
2019-04-20T19:40:28.182Z,23.70
2019-04-20T19:52:53.176Z,23.70
2019-04-20T19:58:37.904Z,23.60
2019-04-20T20:04:40.436Z,23.60
2019-04-20T20:10:40.526Z,23.60
2019-04-20T20:16:58.871Z,23.50
2019-04-20T20:22:49.785Z,23.50
2019-04-20T20:29:05.030Z,23.50
2019-04-20T20:35:01.592Z,23.50
2019-04-20T20:41:08.958Z,23.50
2019-04-20T20:47:21.907Z,23.40
2019-04-20T20:53:16.326Z,23.40
2019-04-20T20:59:26.762Z,23.30
2019-04-20T21:05:19.592Z,23.30
2019-04-20T21:11:27.259Z,23.30
2019-04-20T21:17:37.833Z,23.20
2019-04-20T21:23:44.894Z,23.20
2019-04-20T21:29:43.502Z,23.10
2019-04-20T21:35:45.179Z,23.10
2019-04-20T21:41:50.989Z,23.10
2019-04-20T21:47:50.279Z,23.00
2019-04-20T21:53:56.162Z,23.00
2019-04-20T22:00:08.508Z,23.00
2019-04-20T22:06:04.777Z,22.90
2019-04-20T22:12:07.820Z,22.90
2019-04-20T22:18:14.716Z,22.80
2019-04-20T22:24:33.100Z,22.80
2019-04-20T22:30:20.005Z,22.70
2019-04-20T22:36:24.793Z,22.70
2019-04-20T22:42:31.363Z,22.60
2019-04-20T22:48:33.290Z,22.60
2019-04-20T22:54:49.412Z,22.60
2019-04-20T23:00:50.300Z,22.50
2019-04-20T23:06:49.760Z,22.50
2019-04-20T23:12:53.310Z,22.40
2019-04-20T23:18:54.317Z,22.30
2019-04-20T23:24:57.439Z,22.30
2019-04-20T23:31:07.385Z,22.30
2019-04-20T23:37:09.907Z,22.20
2019-04-20T23:43:18.992Z,22.20
2019-04-20T23:49:22.312Z,22.10
2019-04-20T23:55:18.987Z,22.10
